sensor_id;sensor_type;location;lat;lon;timestamp;P1;durP1;ratioP1;P2;durP2;ratioP2
13991;SDS011;7070;53.586;9.692;2022-09-01T00:02:05;0.50;;;0.50;;
13991;SDS011;7070;53.586;9.692;2022-09-01T00:04:34;0.50;;;0.50;;
13991;SDS011;7070;53.586;9.692;2022-09-01T00:07:03;0.40;;;0.40;;
13991;SDS011;7070;53.586;9.692;2022-09-01T00:09:30;0.50;;;0.50;;
13991;SDS011;7070;53.586;9.692;2022-09-01T00:11:57;0.50;;;0.50;;
13991;SDS011;7070;53.586;9.692;2022-09-01T00:14:27;0.40;;;0.40;;
13991;SDS011;7070;53.586;9.692;2022-09-01T00:16:55;0.40;;;0.40;;
13991;SDS011;7070;53.586;9.692;2022-09-01T00:19:23;0.40;;;0.40;;
13991;SDS011;7070;53.586;9.692;2022-09-01T00:21:51;0.40;;;0.40;;
13991;SDS011;7070;53.586;9.692;2022-09-01T00:24:18;0.50;;;0.50;;
13991;SDS011;7070;53.586;9.692;2022-09-01T00:26:45;0.40;;;0.40;;
13991;SDS011;7070;53.586;9.692;2022-09-01T00:29:13;0.43;;;0.43;;
13991;SDS011;7070;53.586;9.692;2022-09-01T00:31:42;0.40;;;0.40;;
13991;SDS011;7070;53.586;9.692;2022-09-01T00:34:09;0.50;;;0.50;;
13991;SDS011;7070;53.586;9.692;2022-09-01T00:36:36;0.60;;;0.60;;
13991;SDS011;7070;53.586;9.692;2022-09-01T00:39:04;0.40;;;0.40;;
13991;SDS011;7070;53.586;9.692;2022-09-01T00:41:32;0.50;;;0.50;;
13991;SDS011;7070;53.586;9.692;2022-09-01T00:44:04;0.47;;;0.47;;
13991;SDS011;7070;53.586;9.692;2022-09-01T00:46:33;0.50;;;0.50;;
13991;SDS011;7070;53.586;9.692;2022-09-01T00:49:05;0.50;;;0.50;;
13991;SDS011;7070;53.586;9.692;2022-09-01T00:51:36;0.43;;;0.43;;
13991;SDS011;7070;53.586;9.692;2022-09-01T00:54:06;0.40;;;0.40;;
13991;SDS011;7070;53.586;9.692;2022-09-01T00:56:37;0.30;;;0.30;;
13991;SDS011;7070;53.586;9.692;2022-09-01T00:59:06;0.50;;;0.50;;
13991;SDS011;7070;53.586;9.692;2022-09-01T01:01:33;0.43;;;0.43;;
13991;SDS011;7070;53.586;9.692;2022-09-01T01:04:02;0.50;;;0.50;;
13991;SDS011;7070;53.586;9.692;2022-09-01T01:06:31;0.43;;;0.43;;
13991;SDS011;7070;53.586;9.692;2022-09-01T01:08:58;0.40;;;0.40;;
13991;SDS011;7070;53.586;9.692;2022-09-01T01:11:27;0.40;;;0.40;;
13991;SDS011;7070;53.586;9.692;2022-09-01T01:13:57;0.40;;;0.40;;
13991;SDS011;7070;53.586;9.692;2022-09-01T01:16:30;0.40;;;0.40;;
13991;SDS011;7070;53.586;9.692;2022-09-01T01:18:57;0.50;;;0.50;;
13991;SDS011;7070;53.586;9.692;2022-09-01T01:21:28;0.40;;;0.40;;
13991;SDS011;7070;53.586;9.692;2022-09-01T01:24:30;0.43;;;0.43;;
13991;SDS011;7070;53.586;9.692;2022-09-01T01:26:59;0.50;;;0.50;;
13991;SDS011;7070;53.586;9.692;2022-09-01T01:29:29;0.47;;;0.47;;
13991;SDS011;7070;53.586;9.692;2022-09-01T01:31:58;0.50;;;0.50;;
13991;SDS011;7070;53.586;9.692;2022-09-01T01:34:26;0.40;;;0.40;;
13991;SDS011;7070;53.586;9.692;2022-09-01T01:36:53;0.47;;;0.47;;
13991;SDS011;7070;53.586;9.692;2022-09-01T01:39:24;0.40;;;0.40;;
13991;SDS011;7070;53.586;9.692;2022-09-01T01:41:53;0.40;;;0.40;;
13991;SDS011;7070;53.586;9.692;2022-09-01T01:44:22;0.50;;;0.50;;
13991;SDS011;7070;53.586;9.692;2022-09-01T01:46:52;0.50;;;0.50;;
13991;SDS011;7070;53.586;9.692;2022-09-01T01:49:22;0.50;;;0.50;;
13991;SDS011;7070;53.586;9.692;2022-09-01T01:51:51;0.40;;;0.40;;
13991;SDS011;7070;53.586;9.692;2022-09-01T01:54:22;0.50;;;0.50;;
13991;SDS011;7070;53.586;9.692;2022-09-01T01:56:57;0.50;;;0.50;;
13991;SDS011;7070;53.586;9.692;2022-09-01T01:59:25;0.50;;;0.50;;
13991;SDS011;7070;53.586;9.692;2022-09-01T02:01:53;0.50;;;0.50;;
13991;SDS011;7070;53.586;9.692;2022-09-01T02:04:20;0.40;;;0.40;;
13991;SDS011;7070;53.586;9.692;2022-09-01T02:06:48;0.50;;;0.50;;
13991;SDS011;7070;53.586;9.692;2022-09-01T02:09:16;0.50;;;0.50;;
13991;SDS011;7070;53.586;9.692;2022-09-01T02:11:47;0.50;;;0.50;;
13991;SDS011;7070;53.586;9.692;2022-09-01T02:14:19;0.40;;;0.40;;
13991;SDS011;7070;53.586;9.692;2022-09-01T02:16:46;0.50;;;0.50;;
13991;SDS011;7070;53.586;9.692;2022-09-01T02:19:14;0.40;;;0.40;;
13991;SDS011;7070;53.586;9.692;2022-09-01T02:21:45;0.50;;;0.50;;
13991;SDS011;7070;53.586;9.692;2022-09-01T02:24:18;0.50;;;0.50;;
13991;SDS011;7070;53.586;9.692;2022-09-01T02:26:45;0.50;;;0.50;;
13991;SDS011;7070;53.586;9.692;2022-09-01T02:29:13;0.50;;;0.50;;
13991;SDS011;7070;53.586;9.692;2022-09-01T02:31:48;0.50;;;0.50;;
13991;SDS011;7070;53.586;9.692;2022-09-01T02:34:16;0.40;;;0.40;;
13991;SDS011;7070;53.586;9.692;2022-09-01T02:36:45;0.53;;;0.53;;
13991;SDS011;7070;53.586;9.692;2022-09-01T02:39:14;0.50;;;0.50;;
13991;SDS011;7070;53.586;9.692;2022-09-01T02:41:41;0.40;;;0.40;;
13991;SDS011;7070;53.586;9.692;2022-09-01T02:44:08;0.60;;;0.60;;
13991;SDS011;7070;53.586;9.692;2022-09-01T02:46:36;0.47;;;0.47;;
13991;SDS011;7070;53.586;9.692;2022-09-01T02:49:07;0.50;;;0.50;;
13991;SDS011;7070;53.586;9.692;2022-09-01T02:51:39;0.50;;;0.50;;
13991;SDS011;7070;53.586;9.692;2022-09-01T02:54:06;0.40;;;0.40;;
13991;SDS011;7070;53.586;9.692;2022-09-01T02:56:33;0.50;;;0.50;;
13991;SDS011;7070;53.586;9.692;2022-09-01T02:59:00;0.50;;;0.50;;
13991;SDS011;7070;53.586;9.692;2022-09-01T03:01:27;0.43;;;0.43;;
13991;SDS011;7070;53.586;9.692;2022-09-01T03:03:56;0.50;;;0.50;;
13991;SDS011;7070;53.586;9.692;2022-09-01T03:06:27;0.50;;;0.50;;
13991;SDS011;7070;53.586;9.692;2022-09-01T03:08:58;0.50;;;0.50;;
13991;SDS011;7070;53.586;9.692;2022-09-01T03:11:26;0.50;;;0.50;;
13991;SDS011;7070;53.586;9.692;2022-09-01T03:13:54;0.50;;;0.50;;
13991;SDS011;7070;53.586;9.692;2022-09-01T03:16:21;0.40;;;0.40;;
13991;SDS011;7070;53.586;9.692;2022-09-01T03:18:48;0.60;;;0.60;;
13991;SDS011;7070;53.586;9.692;2022-09-01T03:21:15;0.50;;;0.50;;
13991;SDS011;7070;53.586;9.692;2022-09-01T03:23:44;0.50;;;0.50;;
13991;SDS011;7070;53.586;9.692;2022-09-01T03:26:12;0.50;;;0.50;;
13991;SDS011;7070;53.586;9.692;2022-09-01T03:28:42;0.50;;;0.50;;
13991;SDS011;7070;53.586;9.692;2022-09-01T03:31:09;0.43;;;0.43;;
13991;SDS011;7070;53.586;9.692;2022-09-01T03:33:36;0.53;;;0.53;;
13991;SDS011;7070;53.586;9.692;2022-09-01T03:36:04;0.40;;;0.40;;
13991;SDS011;7070;53.586;9.692;2022-09-01T03:38:32;0.40;;;0.40;;
13991;SDS011;7070;53.586;9.692;2022-09-01T03:41:01;0.50;;;0.50;;
13991;SDS011;7070;53.586;9.692;2022-09-01T03:43:30;0.50;;;0.50;;
13991;SDS011;7070;53.586;9.692;2022-09-01T03:45:59;0.40;;;0.40;;
13991;SDS011;7070;53.586;9.692;2022-09-01T03:48:26;0.50;;;0.50;;
13991;SDS011;7070;53.586;9.692;2022-09-01T03:50:55;0.50;;;0.50;;
13991;SDS011;7070;53.586;9.692;2022-09-01T03:53:26;0.60;;;0.60;;
13991;SDS011;7070;53.586;9.692;2022-09-01T03:55:55;0.50;;;0.50;;
13991;SDS011;7070;53.586;9.692;2022-09-01T04:35:19;0.50;;;0.50;;
13991;SDS011;7070;53.586;9.692;2022-09-01T04:37:57;0.50;;;0.50;;
13991;SDS011;7070;53.586;9.692;2022-09-01T04:40:24;0.50;;;0.50;;
13991;SDS011;7070;53.586;9.692;2022-09-01T04:42:51;0.40;;;0.40;;
13991;SDS011;7070;53.586;9.692;2022-09-01T04:45:18;0.50;;;0.50;;
13991;SDS011;7070;53.586;9.692;2022-09-01T04:47:51;0.50;;;0.50;;
13991;SDS011;7070;53.586;9.692;2022-09-01T04:50:20;0.50;;;0.50;;
13991;SDS011;7070;53.586;9.692;2022-09-01T04:52:51;0.60;;;0.60;;
13991;SDS011;7070;53.586;9.692;2022-09-01T04:55:20;0.50;;;0.50;;
13991;SDS011;7070;53.586;9.692;2022-09-01T04:57:48;0.50;;;0.50;;
13991;SDS011;7070;53.586;9.692;2022-09-01T05:00:16;0.50;;;0.50;;
13991;SDS011;7070;53.586;9.692;2022-09-01T05:02:48;0.50;;;0.50;;
13991;SDS011;7070;53.586;9.692;2022-09-01T05:05:17;0.57;;;0.57;;
13991;SDS011;7070;53.586;9.692;2022-09-01T05:07:47;0.57;;;0.57;;
13991;SDS011;7070;53.586;9.692;2022-09-01T05:10:19;0.60;;;0.60;;
13991;SDS011;7070;53.586;9.692;2022-09-01T05:12:47;0.60;;;0.60;;
13991;SDS011;7070;53.586;9.692;2022-09-01T05:15:16;0.50;;;0.50;;
13991;SDS011;7070;53.586;9.692;2022-09-01T05:17:45;0.50;;;0.50;;
13991;SDS011;7070;53.586;9.692;2022-09-01T05:20:11;0.60;;;0.60;;
13991;SDS011;7070;53.586;9.692;2022-09-01T05:22:38;0.50;;;0.50;;
13991;SDS011;7070;53.586;9.692;2022-09-01T05:25:07;0.57;;;0.57;;
13991;SDS011;7070;53.586;9.692;2022-09-01T05:27:38;0.50;;;0.50;;
13991;SDS011;7070;53.586;9.692;2022-09-01T05:30:07;0.43;;;0.43;;
13991;SDS011;7070;53.586;9.692;2022-09-01T05:32:34;0.50;;;0.50;;
13991;SDS011;7070;53.586;9.692;2022-09-01T05:35:04;0.50;;;0.50;;
13991;SDS011;7070;53.586;9.692;2022-09-01T05:37:33;0.50;;;0.50;;
13991;SDS011;7070;53.586;9.692;2022-09-01T05:40:01;0.53;;;0.53;;
13991;SDS011;7070;53.586;9.692;2022-09-01T05:42:31;0.50;;;0.50;;
13991;SDS011;7070;53.586;9.692;2022-09-01T05:44:58;0.50;;;0.50;;
13991;SDS011;7070;53.586;9.692;2022-09-01T05:47:26;0.43;;;0.43;;
13991;SDS011;7070;53.586;9.692;2022-09-01T05:49:53;0.43;;;0.43;;
13991;SDS011;7070;53.586;9.692;2022-09-01T05:52:20;0.50;;;0.50;;
13991;SDS011;7070;53.586;9.692;2022-09-01T05:54:50;0.60;;;0.60;;
13991;SDS011;7070;53.586;9.692;2022-09-01T05:57:17;0.50;;;0.50;;
13991;SDS011;7070;53.586;9.692;2022-09-01T05:59:46;0.40;;;0.40;;
13991;SDS011;7070;53.586;9.692;2022-09-01T06:02:17;0.40;;;0.40;;
13991;SDS011;7070;53.586;9.692;2022-09-01T06:04:45;0.50;;;0.50;;
13991;SDS011;7070;53.586;9.692;2022-09-01T06:07:13;0.50;;;0.50;;
13991;SDS011;7070;53.586;9.692;2022-09-01T06:09:41;0.50;;;0.50;;
13991;SDS011;7070;53.586;9.692;2022-09-01T06:12:10;0.40;;;0.40;;
13991;SDS011;7070;53.586;9.692;2022-09-01T06:14:41;0.40;;;0.40;;
13991;SDS011;7070;53.586;9.692;2022-09-01T06:17:09;0.50;;;0.50;;
13991;SDS011;7070;53.586;9.692;2022-09-01T06:19:40;0.50;;;0.50;;
13991;SDS011;7070;53.586;9.692;2022-09-01T06:22:07;0.40;;;0.40;;
13991;SDS011;7070;53.586;9.692;2022-09-01T06:24:34;0.40;;;0.40;;
13991;SDS011;7070;53.586;9.692;2022-09-01T06:27:04;0.40;;;0.40;;
13991;SDS011;7070;53.586;9.692;2022-09-01T06:29:34;0.40;;;0.40;;
13991;SDS011;7070;53.586;9.692;2022-09-01T06:32:03;0.40;;;0.40;;
13991;SDS011;7070;53.586;9.692;2022-09-01T06:34:35;0.40;;;0.40;;
13991;SDS011;7070;53.586;9.692;2022-09-01T06:37:01;0.40;;;0.40;;
13991;SDS011;7070;53.586;9.692;2022-09-01T06:39:28;0.30;;;0.30;;
13991;SDS011;7070;53.586;9.692;2022-09-01T06:41:56;0.40;;;0.40;;
13991;SDS011;7070;53.586;9.692;2022-09-01T06:44:23;0.30;;;0.30;;
13991;SDS011;7070;53.586;9.692;2022-09-01T06:46:50;0.40;;;0.40;;
13991;SDS011;7070;53.586;9.692;2022-09-01T06:49:19;0.40;;;0.40;;
13991;SDS011;7070;53.586;9.692;2022-09-01T06:51:49;0.40;;;0.40;;
13991;SDS011;7070;53.586;9.692;2022-09-01T06:54:16;0.37;;;0.37;;
13991;SDS011;7070;53.586;9.692;2022-09-01T06:56:43;0.40;;;0.40;;
13991;SDS011;7070;53.586;9.692;2022-09-01T06:59:10;0.40;;;0.40;;
13991;SDS011;7070;53.586;9.692;2022-09-01T07:01:39;0.50;;;0.50;;
13991;SDS011;7070;53.586;9.692;2022-09-01T07:04:06;0.47;;;0.47;;
13991;SDS011;7070;53.586;9.692;2022-09-01T07:06:33;0.40;;;0.40;;
13991;SDS011;7070;53.586;9.692;2022-09-01T07:09:02;0.40;;;0.40;;
13991;SDS011;7070;53.586;9.692;2022-09-01T07:11:30;0.40;;;0.40;;
13991;SDS011;7070;53.586;9.692;2022-09-01T07:13:59;0.40;;;0.40;;
13991;SDS011;7070;53.586;9.692;2022-09-01T07:16:28;0.50;;;0.50;;
13991;SDS011;7070;53.586;9.692;2022-09-01T07:18:59;0.40;;;0.40;;
13991;SDS011;7070;53.586;9.692;2022-09-01T07:21:27;0.40;;;0.40;;
13991;SDS011;7070;53.586;9.692;2022-09-01T07:23:56;0.37;;;0.37;;
13991;SDS011;7070;53.586;9.692;2022-09-01T07:26:27;0.37;;;0.37;;
13991;SDS011;7070;53.586;9.692;2022-09-01T07:28:54;0.40;;;0.40;;
13991;SDS011;7070;53.586;9.692;2022-09-01T07:31:22;0.40;;;0.40;;
13991;SDS011;7070;53.586;9.692;2022-09-01T07:33:51;0.40;;;0.40;;
13991;SDS011;7070;53.586;9.692;2022-09-01T07:36:19;0.30;;;0.30;;
13991;SDS011;7070;53.586;9.692;2022-09-01T07:38:46;0.40;;;0.40;;
13991;SDS011;7070;53.586;9.692;2022-09-01T07:41:15;0.40;;;0.40;;
13991;SDS011;7070;53.586;9.692;2022-09-01T07:43:44;0.40;;;0.40;;
13991;SDS011;7070;53.586;9.692;2022-09-01T07:46:11;0.30;;;0.30;;
13991;SDS011;7070;53.586;9.692;2022-09-01T07:48:38;0.30;;;0.30;;
13991;SDS011;7070;53.586;9.692;2022-09-01T07:51:05;0.30;;;0.30;;
13991;SDS011;7070;53.586;9.692;2022-09-01T07:53:33;0.40;;;0.40;;
13991;SDS011;7070;53.586;9.692;2022-09-01T07:56:04;0.30;;;0.30;;
13991;SDS011;7070;53.586;9.692;2022-09-01T07:58:33;0.40;;;0.40;;
13991;SDS011;7070;53.586;9.692;2022-09-01T08:01:06;0.30;;;0.30;;
13991;SDS011;7070;53.586;9.692;2022-09-01T08:03:33;0.40;;;0.40;;
13991;SDS011;7070;53.586;9.692;2022-09-01T08:06:02;0.40;;;0.40;;
13991;SDS011;7070;53.586;9.692;2022-09-01T08:08:30;0.30;;;0.30;;
13991;SDS011;7070;53.586;9.692;2022-09-01T08:10:57;0.20;;;0.20;;
13991;SDS011;7070;53.586;9.692;2022-09-01T08:13:24;0.40;;;0.40;;
13991;SDS011;7070;53.586;9.692;2022-09-01T08:15:51;0.30;;;0.30;;
13991;SDS011;7070;53.586;9.692;2022-09-01T08:18:20;0.30;;;0.30;;
13991;SDS011;7070;53.586;9.692;2022-09-01T08:20:47;0.30;;;0.30;;
13991;SDS011;7070;53.586;9.692;2022-09-01T08:23:14;0.30;;;0.30;;
13991;SDS011;7070;53.586;9.692;2022-09-01T08:25:44;0.30;;;0.30;;
13991;SDS011;7070;53.586;9.692;2022-09-01T08:28:13;0.30;;;0.30;;
13991;SDS011;7070;53.586;9.692;2022-09-01T08:30:41;0.40;;;0.40;;
13991;SDS011;7070;53.586;9.692;2022-09-01T08:33:09;0.30;;;0.30;;
13991;SDS011;7070;53.586;9.692;2022-09-01T08:35:39;0.40;;;0.40;;
13991;SDS011;7070;53.586;9.692;2022-09-01T08:38:08;0.30;;;0.30;;
13991;SDS011;7070;53.586;9.692;2022-09-01T08:40:35;0.30;;;0.30;;
13991;SDS011;7070;53.586;9.692;2022-09-01T08:43:05;0.30;;;0.30;;
13991;SDS011;7070;53.586;9.692;2022-09-01T08:45:43;0.40;;;0.40;;
13991;SDS011;7070;53.586;9.692;2022-09-01T08:48:15;0.30;;;0.30;;
13991;SDS011;7070;53.586;9.692;2022-09-01T08:50:46;0.30;;;0.30;;
13991;SDS011;7070;53.586;9.692;2022-09-01T08:53:20;0.37;;;0.37;;
13991;SDS011;7070;53.586;9.692;2022-09-01T08:55:53;0.30;;;0.30;;
13991;SDS011;7070;53.586;9.692;2022-09-01T08:58:21;0.30;;;0.30;;
13991;SDS011;7070;53.586;9.692;2022-09-01T09:00:51;0.30;;;0.30;;
13991;SDS011;7070;53.586;9.692;2022-09-01T09:03:22;0.30;;;0.30;;
13991;SDS011;7070;53.586;9.692;2022-09-01T09:06:01;0.20;;;0.20;;
13991;SDS011;7070;53.586;9.692;2022-09-01T09:08:47;0.20;;;0.20;;
13991;SDS011;7070;53.586;9.692;2022-09-01T09:11:23;0.27;;;0.27;;
13991;SDS011;7070;53.586;9.692;2022-09-01T09:14:17;0.30;;;0.30;;
13991;SDS011;7070;53.586;9.692;2022-09-01T09:16:52;0.30;;;0.30;;
13991;SDS011;7070;53.586;9.692;2022-09-01T09:19:21;0.30;;;0.30;;
13991;SDS011;7070;53.586;9.692;2022-09-01T09:21:52;0.30;;;0.30;;
13991;SDS011;7070;53.586;9.692;2022-09-01T09:24:22;0.30;;;0.30;;
13991;SDS011;7070;53.586;9.692;2022-09-01T09:26:53;0.30;;;0.30;;
13991;SDS011;7070;53.586;9.692;2022-09-01T09:29:22;0.30;;;0.30;;
13991;SDS011;7070;53.586;9.692;2022-09-01T09:31:53;0.30;;;0.30;;
13991;SDS011;7070;53.586;9.692;2022-09-01T09:34:29;0.20;;;0.20;;
13991;SDS011;7070;53.586;9.692;2022-09-01T09:40:05;0.30;;;0.30;;
13991;SDS011;7070;53.586;9.692;2022-09-01T09:42:34;0.20;;;0.20;;
13991;SDS011;7070;53.586;9.692;2022-09-01T09:45:04;0.30;;;0.30;;
13991;SDS011;7070;53.586;9.692;2022-09-01T09:47:39;0.30;;;0.30;;
13991;SDS011;7070;53.586;9.692;2022-09-01T09:55:53;0.30;;;0.30;;
13991;SDS011;7070;53.586;9.692;2022-09-01T09:58:23;0.20;;;0.20;;
13991;SDS011;7070;53.586;9.692;2022-09-01T10:00:59;0.37;;;0.37;;
13991;SDS011;7070;53.586;9.692;2022-09-01T10:03:39;0.30;;;0.30;;
13991;SDS011;7070;53.586;9.692;2022-09-01T10:06:11;0.40;;;0.40;;
13991;SDS011;7070;53.586;9.692;2022-09-01T10:08:43;0.30;;;0.30;;
13991;SDS011;7070;53.586;9.692;2022-09-01T10:11:23;0.30;;;0.30;;
13991;SDS011;7070;53.586;9.692;2022-09-01T10:13:53;0.30;;;0.30;;
13991;SDS011;7070;53.586;9.692;2022-09-01T10:16:24;0.30;;;0.30;;
13991;SDS011;7070;53.586;9.692;2022-09-01T10:18:55;0.30;;;0.30;;
13991;SDS011;7070;53.586;9.692;2022-09-01T10:21:26;0.20;;;0.20;;
13991;SDS011;7070;53.586;9.692;2022-09-01T10:23:58;0.20;;;0.20;;
13991;SDS011;7070;53.586;9.692;2022-09-01T10:26:38;0.30;;;0.30;;
13991;SDS011;7070;53.586;9.692;2022-09-01T10:29:10;0.30;;;0.30;;
13991;SDS011;7070;53.586;9.692;2022-09-01T10:31:41;0.20;;;0.20;;
13991;SDS011;7070;53.586;9.692;2022-09-01T10:34:09;0.20;;;0.20;;
13991;SDS011;7070;53.586;9.692;2022-09-01T10:36:39;0.30;;;0.30;;
13991;SDS011;7070;53.586;9.692;2022-09-01T10:39:10;0.20;;;0.20;;
13991;SDS011;7070;53.586;9.692;2022-09-01T10:41:43;0.23;;;0.23;;
13991;SDS011;7070;53.586;9.692;2022-09-01T10:44:17;0.20;;;0.20;;
13991;SDS011;7070;53.586;9.692;2022-09-01T10:46:46;0.20;;;0.20;;
13991;SDS011;7070;53.586;9.692;2022-09-01T10:55:29;0.30;;;0.30;;
13991;SDS011;7070;53.586;9.692;2022-09-01T10:58:07;0.30;;;0.30;;
13991;SDS011;7070;53.586;9.692;2022-09-01T11:00:54;0.20;;;0.20;;
13991;SDS011;7070;53.586;9.692;2022-09-01T11:09:30;0.27;;;0.27;;
13991;SDS011;7070;53.586;9.692;2022-09-01T11:12:08;0.30;;;0.30;;
13991;SDS011;7070;53.586;9.692;2022-09-01T11:14:51;0.30;;;0.30;;
13991;SDS011;7070;53.586;9.692;2022-09-01T11:17:21;0.20;;;0.20;;
13991;SDS011;7070;53.586;9.692;2022-09-01T11:19:53;0.30;;;0.30;;
13991;SDS011;7070;53.586;9.692;2022-09-01T11:22:31;0.30;;;0.30;;
13991;SDS011;7070;53.586;9.692;2022-09-01T11:31:12;0.30;;;0.30;;
13991;SDS011;7070;53.586;9.692;2022-09-01T11:33:56;0.20;;;0.20;;
13991;SDS011;7070;53.586;9.692;2022-09-01T11:36:30;0.30;;;0.30;;
13991;SDS011;7070;53.586;9.692;2022-09-01T11:39:07;0.27;;;0.27;;
13991;SDS011;7070;53.586;9.692;2022-09-01T11:41:45;0.20;;;0.20;;
13991;SDS011;7070;53.586;9.692;2022-09-01T11:44:22;0.20;;;0.20;;
13991;SDS011;7070;53.586;9.692;2022-09-01T11:46:51;0.20;;;0.20;;
13991;SDS011;7070;53.586;9.692;2022-09-01T11:49:28;0.20;;;0.20;;
13991;SDS011;7070;53.586;9.692;2022-09-01T11:51:56;0.20;;;0.20;;
13991;SDS011;7070;53.586;9.692;2022-09-01T11:54:28;0.20;;;0.20;;
13991;SDS011;7070;53.586;9.692;2022-09-01T11:57:15;0.20;;;0.20;;
13991;SDS011;7070;53.586;9.692;2022-09-01T11:59:44;0.20;;;0.20;;
13991;SDS011;7070;53.586;9.692;2022-09-01T12:02:15;0.27;;;0.27;;
13991;SDS011;7070;53.586;9.692;2022-09-01T12:04:43;0.27;;;0.27;;
13991;SDS011;7070;53.586;9.692;2022-09-01T12:07:11;0.20;;;0.20;;
13991;SDS011;7070;53.586;9.692;2022-09-01T12:09:48;0.20;;;0.20;;
13991;SDS011;7070;53.586;9.692;2022-09-01T12:12:28;0.30;;;0.30;;
13991;SDS011;7070;53.586;9.692;2022-09-01T12:14:59;0.20;;;0.20;;
13991;SDS011;7070;53.586;9.692;2022-09-01T12:17:27;0.30;;;0.30;;
13991;SDS011;7070;53.586;9.692;2022-09-01T12:19:54;0.20;;;0.20;;
13991;SDS011;7070;53.586;9.692;2022-09-01T12:22:21;0.30;;;0.30;;
13991;SDS011;7070;53.586;9.692;2022-09-01T12:24:49;0.23;;;0.23;;
13991;SDS011;7070;53.586;9.692;2022-09-01T12:27:17;0.30;;;0.30;;
13991;SDS011;7070;53.586;9.692;2022-09-01T12:29:44;0.30;;;0.30;;
13991;SDS011;7070;53.586;9.692;2022-09-01T12:32:13;0.20;;;0.20;;
13991;SDS011;7070;53.586;9.692;2022-09-01T12:34:42;0.20;;;0.20;;
13991;SDS011;7070;53.586;9.692;2022-09-01T12:37:11;0.30;;;0.30;;
13991;SDS011;7070;53.586;9.692;2022-09-01T12:39:45;0.37;;;0.37;;
13991;SDS011;7070;53.586;9.692;2022-09-01T12:42:22;0.27;;;0.27;;
13991;SDS011;7070;53.586;9.692;2022-09-01T12:44:52;0.20;;;0.20;;
13991;SDS011;7070;53.586;9.692;2022-09-01T12:53:21;0.30;;;0.30;;
13991;SDS011;7070;53.586;9.692;2022-09-01T12:56:02;0.30;;;0.30;;
13991;SDS011;7070;53.586;9.692;2022-09-01T12:58:31;0.20;;;0.20;;
13991;SDS011;7070;53.586;9.692;2022-09-01T13:01:00;0.20;;;0.20;;
13991;SDS011;7070;53.586;9.692;2022-09-01T13:03:31;0.20;;;0.20;;
13991;SDS011;7070;53.586;9.692;2022-09-01T13:05:58;0.30;;;0.30;;
13991;SDS011;7070;53.586;9.692;2022-09-01T13:08:26;0.23;;;0.23;;
13991;SDS011;7070;53.586;9.692;2022-09-01T13:10:58;0.27;;;0.27;;
13991;SDS011;7070;53.586;9.692;2022-09-01T13:13:29;0.23;;;0.23;;
13991;SDS011;7070;53.586;9.692;2022-09-01T13:15:56;0.30;;;0.30;;
13991;SDS011;7070;53.586;9.692;2022-09-01T13:18:25;0.20;;;0.20;;
13991;SDS011;7070;53.586;9.692;2022-09-01T13:20:54;0.30;;;0.30;;
13991;SDS011;7070;53.586;9.692;2022-09-01T13:23:23;0.30;;;0.30;;
13991;SDS011;7070;53.586;9.692;2022-09-01T13:25:50;0.20;;;0.20;;
13991;SDS011;7070;53.586;9.692;2022-09-01T13:28:16;0.20;;;0.20;;
13991;SDS011;7070;53.586;9.692;2022-09-01T13:30:44;0.30;;;0.30;;
13991;SDS011;7070;53.586;9.692;2022-09-01T13:33:17;0.20;;;0.20;;
13991;SDS011;7070;53.586;9.692;2022-09-01T13:35:45;0.20;;;0.20;;
13991;SDS011;7070;53.586;9.692;2022-09-01T13:38:13;0.20;;;0.20;;
13991;SDS011;7070;53.586;9.692;2022-09-01T13:40:41;0.30;;;0.30;;
13991;SDS011;7070;53.586;9.692;2022-09-01T13:43:09;0.20;;;0.20;;
13991;SDS011;7070;53.586;9.692;2022-09-01T13:45:36;0.30;;;0.30;;
13991;SDS011;7070;53.586;9.692;2022-09-01T13:48:04;0.30;;;0.30;;
13991;SDS011;7070;53.586;9.692;2022-09-01T13:50:31;0.30;;;0.30;;
13991;SDS011;7070;53.586;9.692;2022-09-01T13:52:58;0.30;;;0.30;;
13991;SDS011;7070;53.586;9.692;2022-09-01T13:55:28;0.27;;;0.27;;
13991;SDS011;7070;53.586;9.692;2022-09-01T13:57:56;0.23;;;0.23;;
13991;SDS011;7070;53.586;9.692;2022-09-01T14:00:24;0.30;;;0.30;;
13991;SDS011;7070;53.586;9.692;2022-09-01T14:02:54;0.30;;;0.30;;
13991;SDS011;7070;53.586;9.692;2022-09-01T14:05:22;0.27;;;0.27;;
13991;SDS011;7070;53.586;9.692;2022-09-01T14:07:51;0.20;;;0.20;;
13991;SDS011;7070;53.586;9.692;2022-09-01T14:10:19;0.30;;;0.30;;
13991;SDS011;7070;53.586;9.692;2022-09-01T14:12:48;0.30;;;0.30;;
13991;SDS011;7070;53.586;9.692;2022-09-01T14:15:16;0.30;;;0.30;;
13991;SDS011;7070;53.586;9.692;2022-09-01T14:17:45;0.30;;;0.30;;
13991;SDS011;7070;53.586;9.692;2022-09-01T14:20:14;0.30;;;0.30;;
13991;SDS011;7070;53.586;9.692;2022-09-01T14:26:07;0.20;;;0.20;;
13991;SDS011;7070;53.586;9.692;2022-09-01T14:28:37;0.30;;;0.30;;
13991;SDS011;7070;53.586;9.692;2022-09-01T14:31:06;0.30;;;0.30;;
13991;SDS011;7070;53.586;9.692;2022-09-01T14:33:34;0.30;;;0.30;;
13991;SDS011;7070;53.586;9.692;2022-09-01T14:36:01;0.27;;;0.27;;
13991;SDS011;7070;53.586;9.692;2022-09-01T14:38:29;0.20;;;0.20;;
13991;SDS011;7070;53.586;9.692;2022-09-01T14:40:56;0.20;;;0.20;;
13991;SDS011;7070;53.586;9.692;2022-09-01T14:43:23;0.20;;;0.20;;
13991;SDS011;7070;53.586;9.692;2022-09-01T14:46:00;0.20;;;0.20;;
13991;SDS011;7070;53.586;9.692;2022-09-01T14:48:30;0.20;;;0.20;;
13991;SDS011;7070;53.586;9.692;2022-09-01T14:50:58;0.20;;;0.20;;
13991;SDS011;7070;53.586;9.692;2022-09-01T14:53:26;0.30;;;0.30;;
13991;SDS011;7070;53.586;9.692;2022-09-01T14:55:53;0.20;;;0.20;;
13991;SDS011;7070;53.586;9.692;2022-09-01T14:58:20;0.20;;;0.20;;
13991;SDS011;7070;53.586;9.692;2022-09-01T15:00:48;0.20;;;0.20;;
13991;SDS011;7070;53.586;9.692;2022-09-01T15:03:16;0.20;;;0.20;;
13991;SDS011;7070;53.586;9.692;2022-09-01T15:05:43;0.20;;;0.20;;
13991;SDS011;7070;53.586;9.692;2022-09-01T15:08:09;0.37;;;0.37;;
13991;SDS011;7070;53.586;9.692;2022-09-01T15:10:36;0.20;;;0.20;;
13991;SDS011;7070;53.586;9.692;2022-09-01T15:13:03;0.30;;;0.30;;
13991;SDS011;7070;53.586;9.692;2022-09-01T15:15:30;0.30;;;0.30;;
13991;SDS011;7070;53.586;9.692;2022-09-01T15:17:58;0.27;;;0.27;;
13991;SDS011;7070;53.586;9.692;2022-09-01T15:20:27;0.20;;;0.20;;
13991;SDS011;7070;53.586;9.692;2022-09-01T15:23:15;0.20;;;0.20;;
13991;SDS011;7070;53.586;9.692;2022-09-01T15:25:43;0.30;;;0.30;;
13991;SDS011;7070;53.586;9.692;2022-09-01T15:28:10;0.30;;;0.30;;
13991;SDS011;7070;53.586;9.692;2022-09-01T15:30:38;0.30;;;0.30;;
13991;SDS011;7070;53.586;9.692;2022-09-01T15:33:08;0.30;;;0.30;;
13991;SDS011;7070;53.586;9.692;2022-09-01T15:35:36;0.27;;;0.27;;
13991;SDS011;7070;53.586;9.692;2022-09-01T15:38:04;0.30;;;0.30;;
13991;SDS011;7070;53.586;9.692;2022-09-01T15:40:32;0.30;;;0.30;;
13991;SDS011;7070;53.586;9.692;2022-09-01T15:42:59;0.30;;;0.30;;
13991;SDS011;7070;53.586;9.692;2022-09-01T15:45:27;0.23;;;0.23;;
13991;SDS011;7070;53.586;9.692;2022-09-01T15:47:54;0.20;;;0.20;;
13991;SDS011;7070;53.586;9.692;2022-09-01T15:50:21;0.30;;;0.30;;
13991;SDS011;7070;53.586;9.692;2022-09-01T15:52:52;0.30;;;0.30;;
13991;SDS011;7070;53.586;9.692;2022-09-01T15:55:23;0.20;;;0.20;;
13991;SDS011;7070;53.586;9.692;2022-09-01T15:57:51;0.30;;;0.30;;
13991;SDS011;7070;53.586;9.692;2022-09-01T16:00:19;0.20;;;0.20;;
13991;SDS011;7070;53.586;9.692;2022-09-01T16:02:47;0.20;;;0.20;;
13991;SDS011;7070;53.586;9.692;2022-09-01T16:05:14;0.30;;;0.30;;
13991;SDS011;7070;53.586;9.692;2022-09-01T16:07:42;0.20;;;0.20;;
13991;SDS011;7070;53.586;9.692;2022-09-01T16:10:10;0.30;;;0.30;;
13991;SDS011;7070;53.586;9.692;2022-09-01T16:12:38;0.23;;;0.23;;
13991;SDS011;7070;53.586;9.692;2022-09-01T16:15:08;0.30;;;0.30;;
13991;SDS011;7070;53.586;9.692;2022-09-01T16:20:53;0.20;;;0.20;;
13991;SDS011;7070;53.586;9.692;2022-09-01T16:23:28;0.23;;;0.23;;
13991;SDS011;7070;53.586;9.692;2022-09-01T16:28:31;0.40;;;0.40;;
13991;SDS011;7070;53.586;9.692;2022-09-01T16:31:02;0.20;;;0.20;;
13991;SDS011;7070;53.586;9.692;2022-09-01T16:33:49;0.30;;;0.30;;
13991;SDS011;7070;53.586;9.692;2022-09-01T16:36:28;0.30;;;0.30;;